METAR Data
IDs: Format: Raw Decoded Include TAF

Data at: 1640 UTC 03 Dec 2021

KACV 031634Z AUTO 00000KT 1SM R32/1800VP6000FT BR VV002 06/06 A3011 RMK AO2 T00560056

KACV 031130Z 0312/0412 10002KT 1/4SM FG OVC002
  FM032200 26004KT 2SM BR BKN005 BKN250
  FM040600 VRB01KT 1/2SM FG OVC005